Abingdon, VA (24212)

9:32 AM EST on November 26, 2014 (GMT -0500)
Country Club Estates | Change Station
CLOSE
Current Station
Personal Weather Station
Location: Abingdon, VA
Elevation: 1990 ft
Nearby Weather Stations
Active Advisory: Winter Weather Advisory

Elev 1990 ft 36.69 °N, 81.97 °W | Updated 20 seconds ago

Snow
Snow
33.6 °F
Feels Like 34 °F
N
1.2
Wind Variable Wind from East
Gusts 0.0 mph

Today
High -- | Low -- °F
--% Chance of Precip.
Yesterday
High -- | Low -- °F
Precip. -- in
7:16 AM 5:13 PM
Waxing Crescent, 20% visible
Pressure 30.02 in
Visibility 5.0 miles
Clouds Mostly Cloudy 500 ft
Mostly Cloudy 900 ft
Overcast 2800 ft
Windchill 34 °F
Dew Point 32 °F
Humidity 94%
Rainfall 0.40 in
Snow Depth Not available.
UV 0 out of 12
Pollen .10 out of 12
Air Quality Not available.
Flu Activity Not available.
METAR KVJI 261415Z AUTO 00000KT 5SM -RA BKN005 BKN009 OVC028 02/02 A3002 RMK AO2 P0002 T00220015

More Conditions Fewer Conditions

Pressure 30.02 in
Visibility 5.0 miles
Clouds Mostly Cloudy 500 ft
Mostly Cloudy 900 ft
Overcast 2800 ft
Windchill 34 °F
Dew Point 32 °F
Humidity 94%
Rainfall 0.40 in
Snow Depth Not available.
UV 0 out of 12
Pollen .10 out of 12
Air Quality Not available.
Flu Activity Not available.
METAR KVJI 261415Z AUTO 00000KT 5SM -RA BKN005 BKN009 OVC028 02/02 A3002 RMK AO2 P0002 T00220015

More Conditions Fewer Conditions

10-Day Weather Forecast

Almanac

Astronomy

Nov. 26, 2014 Rise Set
Actual Time
Civil Twilight
Nautical Twilight
Astronomical Twilight
Moon
Length of Visible Light
Length of Day
Tomorrow will be .
, % of the Moon is Illuminated

Today's Extremes

State Highs State Lows

Community

WunderPhotos

Upload Photos

1,773,756 photos uploaded!

WunderBlogs® & News

Nearby

Air Quality

  Air Quality AQ Index Pollutant
Not available.

Snow Depth

Station Depth Elevation

Earthquake Activity

City Distance Mag. Time & Date
Minimum magnitude displayed is 2.5.

Coastal Water Temperatures

Place Temperature

Nearby Weather Stations